Time;durP1;ratioP1;P1;durP2;ratioP2;P2;SDS_P1;SDS_P2;PMS_P1;PMS_P2;Temp;Humidity;BMP_temperature;BMP_pressure;BME280_temperature;BME280_humidity;BME280_pressure;Samples;Min_cycle;Max_cycle;Signal;HPM_P1;HPM_P2
2022/03/06 00:02:18;;;;;;;4.90;2.20;;;;;;;;;;1729731;83;21072;-72
2022/03/06 00:04:44;;;;;;;3.55;2.17;;;;;;;;;;1729633;83;21439;-72
2022/03/06 00:07:11;;;;;;;3.12;2.02;;;;;;;;;;1729767;83;21048;-72
2022/03/06 00:09:37;;;;;;;3.77;2.05;;;;;;;;;;1729819;83;21013;-72
2022/03/06 00:12:06;;;;;;;4.03;2.37;;;;;;;;;;1729809;82;21046;-73
2022/03/06 00:14:33;;;;;;;2.83;2.02;;;;;;;;;;1729526;82;21068;-72
2022/03/06 00:16:59;;;;;;;5.25;2.40;;;;;;;;;;1729785;83;20997;-72
2022/03/06 00:19:26;;;;;;;2.72;1.98;;;;;;;;;;1729527;83;21044;-71
2022/03/06 00:21:53;;;;;;;3.50;2.42;;;;;;;;;;1729653;82;21060;-72
2022/03/06 00:24:19;;;;;;;4.20;2.20;;;;;;;;;;1729837;83;21076;-72
2022/03/06 00:26:47;;;;;;;3.92;2.37;;;;;;;;;;1729651;83;21112;-73
2022/03/06 00:29:15;;;;;;;2.92;1.95;;;;;;;;;;1729838;83;20981;-73
2022/03/06 00:31:44;;;;;;;4.37;2.60;;;;;;;;;;1729600;82;21121;-72
2022/03/06 00:34:11;;;;;;;4.83;2.42;;;;;;;;;;1729527;81;21029;-73
2022/03/06 00:36:37;;;;;;;3.27;2.25;;;;;;;;;;1729762;83;21009;-72
2022/03/06 00:39:05;;;;;;;3.15;2.17;;;;;;;;;;1729584;83;21083;-72
2022/03/06 00:41:31;;;;;;;4.05;2.37;;;;;;;;;;1729770;82;21508;-73
2022/03/06 00:43:57;;;;;;;6.33;2.77;;;;;;;;;;1729695;83;21065;-72
2022/03/06 00:46:24;;;;;;;5.12;2.60;;;;;;;;;;1729735;83;21084;-71
2022/03/06 00:48:51;;;;;;;6.17;2.70;;;;;;;;;;1729479;83;21107;-71
2022/03/06 00:51:18;;;;;;;4.85;2.77;;;;;;;;;;1729854;82;21084;-72
2022/03/06 00:53:45;;;;;;;4.47;2.33;;;;;;;;;;1729858;82;21064;-72
2022/03/06 00:56:13;;;;;;;4.20;3.17;;;;;;;;;;1729535;83;21075;-72
2022/03/06 00:58:39;;;;;;;4.55;2.47;;;;;;;;;;1729392;82;20986;-72
2022/03/06 01:01:05;;;;;;;4.53;2.50;;;;;;;;;;1729914;83;21049;-73
2022/03/06 01:03:34;;;;;;;5.12;2.87;;;;;;;;;;1729815;82;21080;-72
2022/03/06 01:06:00;;;;;;;4.67;2.58;;;;;;;;;;1729791;83;21595;-73
2022/03/06 01:08:27;;;;;;;4.33;2.72;;;;;;;;;;1729715;82;21056;-72
2022/03/06 01:10:54;;;;;;;3.80;2.17;;;;;;;;;;1729679;82;21088;-72
2022/03/06 01:13:22;;;;;;;5.87;2.60;;;;;;;;;;1729850;82;21068;-72
2022/03/06 01:15:49;;;;;;;5.70;2.95;;;;;;;;;;1729887;83;21025;-72
2022/03/06 01:18:15;;;;;;;3.83;2.50;;;;;;;;;;1729790;83;21525;-72
2022/03/06 01:20:41;;;;;;;5.85;2.40;;;;;;;;;;1729835;83;21064;-73
2022/03/06 01:23:08;;;;;;;4.25;2.52;;;;;;;;;;1729763;83;21079;-73
2022/03/06 01:25:35;;;;;;;3.87;2.50;;;;;;;;;;1729402;82;21064;-72
2022/03/06 01:28:01;;;;;;;5.05;2.62;;;;;;;;;;1729660;83;21057;-73
2022/03/06 01:30:28;;;;;;;6.47;2.55;;;;;;;;;;1729670;83;21084;-72
2022/03/06 01:32:54;;;;;;;7.12;3.10;;;;;;;;;;1729616;81;21123;-72
2022/03/06 01:35:21;;;;;;;5.35;2.62;;;;;;;;;;1729812;82;21048;-72
2022/03/06 01:37:47;;;;;;;5.05;2.47;;;;;;;;;;1729763;83;20996;-73
2022/03/06 01:40:14;;;;;;;4.65;2.50;;;;;;;;;;1729479;82;21084;-72
2022/03/06 01:42:41;;;;;;;4.83;2.40;;;;;;;;;;1729685;83;21603;-73
2022/03/06 01:45:08;;;;;;;4.58;2.55;;;;;;;;;;1729674;83;21068;-72
2022/03/06 01:47:42;;;;;;;4.17;2.45;;;;;;;;;;1729538;83;21072;-72
2022/03/06 01:50:09;;;;;;;4.03;2.45;;;;;;;;;;1729823;83;21029;-72
2022/03/06 01:52:37;;;;;;;3.62;2.40;;;;;;;;;;1729471;83;21112;-72
2022/03/06 01:55:03;;;;;;;6.55;2.83;;;;;;;;;;1729789;83;21040;-71
2022/03/06 01:57:30;;;;;;;3.77;2.20;;;;;;;;;;1729468;82;21072;-71
2022/03/06 01:59:59;;;;;;;4.92;2.40;;;;;;;;;;1713315;83;21076;-71
2022/03/06 02:05:15;;;;;;;5.92;2.80;;;;;;;;;;1718715;80;21174;-69
2022/03/06 02:07:42;;;;;;;5.20;2.87;;;;;;;;;;1704110;83;21071;-69
2022/03/06 02:10:10;;;;;;;4.92;2.30;;;;;;;;;;1699642;84;21134;-69
2022/03/06 02:12:36;;;;;;;4.28;2.60;;;;;;;;;;1700004;84;21027;-69
2022/03/06 02:15:05;;;;;;;6.12;3.02;;;;;;;;;;1699509;84;21103;-69
2022/03/06 02:17:31;;;;;;;4.72;2.60;;;;;;;;;;1699814;84;21027;-69
2022/03/06 02:19:59;;;;;;;6.05;2.70;;;;;;;;;;1699815;84;21077;-70
2022/03/06 02:22:31;;;;;;;5.97;2.85;;;;;;;;;;1699847;84;21538;-71
2022/03/06 02:24:58;;;;;;;6.50;2.87;;;;;;;;;;1699125;84;21501;-69
2022/03/06 02:27:25;;;;;;;6.10;2.67;;;;;;;;;;1699756;84;22212;-70
2022/03/06 02:29:52;;;;;;;5.25;2.80;;;;;;;;;;1699578;84;21589;-70
2022/03/06 02:32:19;;;;;;;6.58;3.02;;;;;;;;;;1699846;84;21097;-70
2022/03/06 02:34:47;;;;;;;4.80;2.60;;;;;;;;;;1665863;86;21005;-70
2022/03/06 02:37:14;;;;;;;4.70;2.75;;;;;;;;;;1655884;87;21088;-69
2022/03/06 02:39:43;;;;;;;3.65;2.30;;;;;;;;;;1665829;86;21517;-69
2022/03/06 02:42:10;;;;;;;6.40;2.87;;;;;;;;;;1666082;86;21022;-69
2022/03/06 02:44:38;;;;;;;4.47;2.50;;;;;;;;;;1684806;85;21080;-69
2022/03/06 02:47:04;;;;;;;4.67;2.33;;;;;;;;;;1685176;85;21530;-69
2022/03/06 02:49:30;;;;;;;3.50;2.22;;;;;;;;;;1685100;85;21020;-70
2022/03/06 02:51:57;;;;;;;4.80;2.70;;;;;;;;;;1685266;85;21114;-70
2022/03/06 02:54:24;;;;;;;4.47;2.50;;;;;;;;;;1685121;85;21047;-70
2022/03/06 02:56:51;;;;;;;5.10;2.83;;;;;;;;;;1685436;85;21032;-70
2022/03/06 02:59:18;;;;;;;7.95;3.05;;;;;;;;;;1684980;85;21063;-70
2022/03/06 03:01:44;;;;;;;8.03;4.42;;;;;;;;;;1685381;85;21035;-70
2022/03/06 03:04:11;;;;;;;9.33;4.40;;;;;;;;;;1680831;82;21583;-70
2022/03/06 03:06:38;;;;;;;8.10;3.80;;;;;;;;;;1674834;86;21075;-70
2022/03/06 03:09:05;;;;;;;9.43;4.62;;;;;;;;;;1674961;86;21060;-70
2022/03/06 03:11:33;;;;;;;7.92;4.15;;;;;;;;;;1674923;86;21005;-70
2022/03/06 03:14:01;;;;;;;6.70;3.72;;;;;;;;;;1674607;86;21083;-70
2022/03/06 03:16:27;;;;;;;6.37;3.33;;;;;;;;;;1675003;86;20997;-71
2022/03/06 03:18:54;;;;;;;6.92;3.70;;;;;;;;;;1674621;86;21604;-69
2022/03/06 03:21:23;;;;;;;7.75;3.50;;;;;;;;;;1675012;86;21099;-69
2022/03/06 03:23:49;;;;;;;9.48;3.47;;;;;;;;;;1674830;86;21051;-70
2022/03/06 03:26:16;;;;;;;7.42;2.98;;;;;;;;;;1674994;86;21080;-70
2022/03/06 03:28:45;;;;;;;6.22;3.20;;;;;;;;;;1674701;86;22136;-69
2022/03/06 03:31:12;;;;;;;7.67;3.83;;;;;;;;;;1674921;86;21031;-69
2022/03/06 03:33:38;;;;;;;7.33;3.33;;;;;;;;;;1674637;86;21080;-70
2022/03/06 03:36:05;;;;;;;6.80;3.55;;;;;;;;;;1675013;86;21059;-70
2022/03/06 03:38:32;;;;;;;8.33;3.72;;;;;;;;;;1674819;86;21064;-69
2022/03/06 03:41:01;;;;;;;5.50;3.37;;;;;;;;;;1674959;86;21571;-70
2022/03/06 03:43:28;;;;;;;5.53;2.83;;;;;;;;;;1674855;86;21072;-70
2022/03/06 03:45:57;;;;;;;4.40;2.92;;;;;;;;;;1674804;86;21075;-69
2022/03/06 03:48:25;;;;;;;7.92;3.33;;;;;;;;;;1675050;86;21044;-69
2022/03/06 03:50:52;;;;;;;6.03;3.67;;;;;;;;;;1674618;86;21083;-70
2022/03/06 03:53:22;;;;;;;6.28;3.22;;;;;;;;;;1674978;86;21571;-70
2022/03/06 03:55:49;;;;;;;6.97;3.30;;;;;;;;;;1674908;86;21084;-70
2022/03/06 03:58:17;;;;;;;6.10;3.25;;;;;;;;;;1674815;86;21072;-70
2022/03/06 04:01:17;;;;;;;7.03;2.98;;;;;;;;;;1674958;86;21095;-70
2022/03/06 04:03:18;;;;;;;7.37;3.37;;;;;;;;;;1661677;83;21646;-70
2022/03/06 04:05:45;;;;;;;7.70;2.83;;;;;;;;;;1687172;85;21097;-69
2022/03/06 04:08:12;;;;;;;5.30;3.10;;;;;;;;;;1687963;85;21072;-69
2022/03/06 04:10:38;;;;;;;6.37;3.33;;;;;;;;;;1687924;85;21104;-69
2022/03/06 04:13:05;;;;;;;9.05;3.20;;;;;;;;;;1688353;85;21505;-70
2022/03/06 04:15:32;;;;;;;6.92;3.22;;;;;;;;;;1688108;85;21556;-68
2022/03/06 04:17:59;;;;;;;8.10;3.33;;;;;;;;;;1688338;85;21006;-69
2022/03/06 04:20:27;;;;;;;7.83;3.52;;;;;;;;;;1687902;85;21033;-69
2022/03/06 04:22:55;;;;;;;5.40;2.80;;;;;;;;;;1693087;85;21054;-69
2022/03/06 04:25:22;;;;;;;5.45;2.83;;;;;;;;;;1692801;84;21034;-69
2022/03/06 04:27:48;;;;;;;6.62;3.12;;;;;;;;;;1693110;85;21090;-70
2022/03/06 04:30:15;;;;;;;5.33;3.08;;;;;;;;;;1692820;84;21034;-70
2022/03/06 04:32:42;;;;;;;6.15;3.02;;;;;;;;;;1693015;84;21101;-69
2022/03/06 04:35:08;;;;;;;5.58;3.20;;;;;;;;;;1692960;85;21042;-70
2022/03/06 04:37:34;;;;;;;5.50;3.08;;;;;;;;;;1693117;85;20991;-69
2022/03/06 04:40:01;;;;;;;6.33;3.15;;;;;;;;;;1692726;84;22138;-69
2022/03/06 04:42:28;;;;;;;6.58;3.00;;;;;;;;;;1693032;85;21043;-69
2022/03/06 04:44:55;;;;;;;6.72;3.45;;;;;;;;;;1692584;84;21476;-69
2022/03/06 04:47:22;;;;;;;7.65;4.17;;;;;;;;;;1693003;85;21078;-69
2022/03/06 04:49:48;;;;;;;9.10;5.17;;;;;;;;;;1692815;85;21628;-69
2022/03/06 04:52:16;;;;;;;7.78;5.00;;;;;;;;;;1692729;84;21616;-69
2022/03/06 04:54:43;;;;;;;5.92;3.52;;;;;;;;;;1692692;85;21077;-70
2022/03/06 04:57:10;;;;;;;5.90;3.45;;;;;;;;;;1692998;85;21070;-71
2022/03/06 04:59:36;;;;;;;4.10;2.90;;;;;;;;;;1692664;85;21050;-72
2022/03/06 05:02:03;;;;;;;7.45;2.98;;;;;;;;;;1692869;84;22087;-70
2022/03/06 05:04:30;;;;;;;3.45;2.47;;;;;;;;;;1692620;82;21165;-70
2022/03/06 05:06:56;;;;;;;5.10;2.40;;;;;;;;;;1692825;85;21050;-71
2022/03/06 05:09:23;;;;;;;4.28;2.30;;;;;;;;;;1692663;84;21113;-71
2022/03/06 05:11:50;;;;;;;4.47;2.22;;;;;;;;;;1692948;84;21026;-71
2022/03/06 05:14:20;;;;;;;3.45;1.98;;;;;;;;;;1692620;84;21038;-71
2022/03/06 05:16:49;;;;;;;3.12;2.40;;;;;;;;;;1692589;84;21078;-71
2022/03/06 05:19:16;;;;;;;3.60;2.25;;;;;;;;;;1692756;85;21019;-71
2022/03/06 05:21:42;;;;;;;5.97;3.58;;;;;;;;;;1692911;85;21046;-70
2022/03/06 05:24:10;;;;;;;4.10;3.02;;;;;;;;;;1692898;84;21053;-70
2022/03/06 05:26:38;;;;;;;4.58;2.80;;;;;;;;;;1692532;84;21089;-70
2022/03/06 05:29:04;;;;;;;4.08;2.60;;;;;;;;;;1692959;85;21069;-70
2022/03/06 05:31:31;;;;;;;3.83;2.75;;;;;;;;;;1692548;84;21011;-70
2022/03/06 05:33:58;;;;;;;4.60;2.58;;;;;;;;;;1692720;84;21027;-70
2022/03/06 05:36:24;;;;;;;5.28;2.65;;;;;;;;;;1692929;85;21074;-70
2022/03/06 05:38:51;;;;;;;3.72;2.33;;;;;;;;;;1692657;84;21050;-70
2022/03/06 05:41:17;;;;;;;5.28;2.50;;;;;;;;;;1692930;85;21038;-70
2022/03/06 05:43:44;;;;;;;5.42;2.65;;;;;;;;;;1692773;85;21577;-70
2022/03/06 05:46:11;;;;;;;3.10;2.10;;;;;;;;;;1692695;85;21041;-70
2022/03/06 05:48:37;;;;;;;3.87;2.22;;;;;;;;;;1692962;85;20994;-71
2022/03/06 05:51:03;;;;;;;3.55;2.10;;;;;;;;;;1692969;85;21569;-70
2022/03/06 05:53:30;;;;;;;3.80;2.08;;;;;;;;;;1693022;84;21153;-70
2022/03/06 05:55:56;;;;;;;4.62;2.08;;;;;;;;;;1692695;85;21028;-70
2022/03/06 05:58:22;;;;;;;4.47;2.10;;;;;;;;;;1693094;85;21517;-70
2022/03/06 06:00:49;;;;;;;3.30;1.95;;;;;;;;;;1692683;84;21062;-70
2022/03/06 06:03:15;;;;;;;4.30;2.27;;;;;;;;;;1692942;82;21046;-71
2022/03/06 06:05:43;;;;;;;3.10;2.00;;;;;;;;;;1692601;85;21111;-71
2022/03/06 06:08:10;;;;;;;3.12;1.90;;;;;;;;;;1692898;85;21592;-70
2022/03/06 06:10:37;;;;;;;2.40;1.72;;;;;;;;;;1692625;84;21070;-71
2022/03/06 06:13:04;;;;;;;2.22;1.80;;;;;;;;;;1692673;84;21063;-71
2022/03/06 06:15:31;;;;;;;2.83;2.00;;;;;;;;;;1692804;85;21050;-71
2022/03/06 06:17:57;;;;;;;3.42;1.95;;;;;;;;;;1692894;85;21040;-70
2022/03/06 06:20:23;;;;;;;5.00;2.33;;;;;;;;;;1692853;85;21023;-70
2022/03/06 06:22:53;;;;;;;5.30;2.52;;;;;;;;;;1692606;85;21042;-70
2022/03/06 06:25:19;;;;;;;3.35;2.30;;;;;;;;;;1692996;85;21595;-69
2022/03/06 06:27:45;;;;;;;3.22;2.27;;;;;;;;;;1692844;85;21003;-69
2022/03/06 06:30:13;;;;;;;3.65;2.27;;;;;;;;;;1692573;84;21542;-71
2022/03/06 06:32:42;;;;;;;3.70;2.30;;;;;;;;;;1692907;85;21038;-70
2022/03/06 06:35:08;;;;;;;3.25;2.33;;;;;;;;;;1693014;85;21030;-70
2022/03/06 06:37:35;;;;;;;3.72;2.45;;;;;;;;;;1692926;84;22061;-70
2022/03/06 06:40:02;;;;;;;4.95;2.35;;;;;;;;;;1692719;85;21048;-70
2022/03/06 06:42:30;;;;;;;2.20;1.98;;;;;;;;;;1692985;84;21047;-70
2022/03/06 06:44:57;;;;;;;4.45;2.25;;;;;;;;;;1692693;85;21117;-71
2022/03/06 06:47:24;;;;;;;3.30;1.95;;;;;;;;;;1692975;85;21102;-70
2022/03/06 06:49:51;;;;;;;4.50;2.27;;;;;;;;;;1692832;85;21625;-70
2022/03/06 06:52:17;;;;;;;3.30;2.10;;;;;;;;;;1693007;84;21612;-70
2022/03/06 06:54:43;;;;;;;4.22;2.30;;;;;;;;;;1692903;85;21002;-71
2022/03/06 06:57:10;;;;;;;2.85;2.02;;;;;;;;;;1692999;84;21053;-70
2022/03/06 06:59:38;;;;;;;3.25;2.17;;;;;;;;;;1692679;84;21101;-70
2022/03/06 07:02:05;;;;;;;3.37;2.20;;;;;;;;;;1692680;84;21074;-70
2022/03/06 07:04:31;;;;;;;4.10;2.58;;;;;;;;;;1692537;83;21109;-70
2022/03/06 07:06:58;;;;;;;3.27;2.10;;;;;;;;;;1692538;84;21050;-70
2022/03/06 07:09:26;;;;;;;3.50;2.10;;;;;;;;;;1692968;85;21070;-69
2022/03/06 07:11:52;;;;;;;3.50;2.58;;;;;;;;;;1693240;85;21052;-71
2022/03/06 07:14:20;;;;;;;4.03;2.33;;;;;;;;;;1692713;85;21070;-71
2022/03/06 07:16:46;;;;;;;4.10;2.33;;;;;;;;;;1693145;85;21026;-70
2022/03/06 07:19:14;;;;;;;3.35;2.22;;;;;;;;;;1692816;84;21090;-71
2022/03/06 07:21:41;;;;;;;3.60;2.15;;;;;;;;;;1692982;85;21082;-71
2022/03/06 07:24:07;;;;;;;3.65;2.50;;;;;;;;;;1693040;85;21077;-71
2022/03/06 07:26:34;;;;;;;4.00;2.27;;;;;;;;;;1692992;85;21593;-70
2022/03/06 07:29:00;;;;;;;4.42;2.60;;;;;;;;;;1692882;85;21011;-70
2022/03/06 07:31:27;;;;;;;3.33;2.42;;;;;;;;;;1693086;85;21013;-70
2022/03/06 07:33:53;;;;;;;4.85;2.72;;;;;;;;;;1693004;85;21077;-70
2022/03/06 07:36:20;;;;;;;4.62;2.75;;;;;;;;;;1693037;85;21073;-70
2022/03/06 07:38:46;;;;;;;4.37;2.77;;;;;;;;;;1692994;85;21619;-70
2022/03/06 07:41:12;;;;;;;4.40;2.47;;;;;;;;;;1693054;85;21037;-70
2022/03/06 07:43:40;;;;;;;6.30;2.98;;;;;;;;;;1692783;85;21062;-70
2022/03/06 07:46:06;;;;;;;5.05;2.55;;;;;;;;;;1692918;85;21053;-69
2022/03/06 07:48:33;;;;;;;3.42;2.35;;;;;;;;;;1693048;85;21046;-69
2022/03/06 07:50:59;;;;;;;4.20;2.60;;;;;;;;;;1692583;84;21569;-70
2022/03/06 07:53:27;;;;;;;4.85;3.00;;;;;;;;;;1692914;85;22151;-69
2022/03/06 07:55:53;;;;;;;5.65;3.47;;;;;;;;;;1692801;85;21046;-70
2022/03/06 07:58:20;;;;;;;5.87;3.47;;;;;;;;;;1692965;85;21046;-69
2022/03/06 08:00:46;;;;;;;5.30;3.10;;;;;;;;;;1692837;85;21050;-69
2022/03/06 08:03:12;;;;;;;5.17;2.60;;;;;;;;;;1692952;82;21537;-70
2022/03/06 08:05:40;;;;;;;4.15;2.95;;;;;;;;;;1692625;85;21090;-70
2022/03/06 08:08:08;;;;;;;5.20;3.45;;;;;;;;;;1692788;85;21615;-70
2022/03/06 08:10:38;;;;;;;5.45;3.45;;;;;;;;;;1693004;85;21062;-70
2022/03/06 08:13:05;;;;;;;6.10;3.08;;;;;;;;;;1692870;84;21093;-70
2022/03/06 08:15:32;;;;;;;6.35;3.55;;;;;;;;;;1692685;84;21074;-69
2022/03/06 08:17:58;;;;;;;5.87;3.92;;;;;;;;;;1692819;85;21069;-70
2022/03/06 08:20:25;;;;;;;4.83;3.62;;;;;;;;;;1692891;84;21074;-70
2022/03/06 08:22:52;;;;;;;7.12;3.90;;;;;;;;;;1692924;85;21347;-70
2022/03/06 08:25:20;;;;;;;9.83;4.53;;;;;;;;;;1692804;85;21038;-70
2022/03/06 08:27:47;;;;;;;7.80;4.28;;;;;;;;;;1692661;85;21054;-70
2022/03/06 08:30:13;;;;;;;6.75;3.95;;;;;;;;;;1692984;85;21042;-69
2022/03/06 08:32:39;;;;;;;9.35;4.70;;;;;;;;;;1692919;85;21073;-70
2022/03/06 08:35:08;;;;;;;5.92;4.17;;;;;;;;;;1692766;84;21206;-70
2022/03/06 08:37:34;;;;;;;6.22;3.92;;;;;;;;;;1692628;85;21054;-69
2022/03/06 08:40:01;;;;;;;7.95;4.53;;;;;;;;;;1692932;85;20995;-70
2022/03/06 08:42:28;;;;;;;6.75;4.80;;;;;;;;;;1692737;84;21074;-70
2022/03/06 08:44:56;;;;;;;4.70;3.20;;;;;;;;;;1692822;85;21568;-70
2022/03/06 08:47:22;;;;;;;7.67;4.42;;;;;;;;;;1693043;85;21069;-70
2022/03/06 08:49:49;;;;;;;7.22;3.72;;;;;;;;;;1692761;84;21097;-70
2022/03/06 08:52:16;;;;;;;7.35;5.03;;;;;;;;;;1692953;85;21525;-70
2022/03/06 08:54:45;;;;;;;5.62;4.00;;;;;;;;;;1692948;84;21534;-70
2022/03/06 08:57:13;;;;;;;6.40;3.52;;;;;;;;;;1693001;85;21073;-69
2022/03/06 08:59:39;;;;;;;7.05;4.33;;;;;;;;;;1693122;85;21030;-70
2022/03/06 09:02:06;;;;;;;5.75;3.40;;;;;;;;;;1693036;84;21592;-70
2022/03/06 09:04:33;;;;;;;8.98;4.85;;;;;;;;;;1692785;82;21684;-70
2022/03/06 09:07:00;;;;;;;5.90;3.83;;;;;;;;;;1690387;85;21011;-71
2022/03/06 09:09:26;;;;;;;4.92;3.33;;;;;;;;;;1690041;85;21099;-70
2022/03/06 09:11:53;;;;;;;6.80;4.30;;;;;;;;;;1689735;85;21004;-69
2022/03/06 09:14:19;;;;;;;10.05;4.83;;;;;;;;;;1689890;85;21064;-70
2022/03/06 09:16:45;;;;;;;6.55;4.12;;;;;;;;;;1689868;85;21071;-70
2022/03/06 09:19:13;;;;;;;5.72;3.40;;;;;;;;;;1689723;85;21091;-70
2022/03/06 09:21:39;;;;;;;5.75;3.40;;;;;;;;;;1689832;85;21603;-70
2022/03/06 09:24:08;;;;;;;6.92;3.72;;;;;;;;;;1689572;85;21515;-70
2022/03/06 09:26:35;;;;;;;5.37;3.00;;;;;;;;;;1689777;85;21593;-71
2022/03/06 09:29:01;;;;;;;6.42;3.75;;;;;;;;;;1689814;85;21035;-70
2022/03/06 09:31:28;;;;;;;7.42;4.78;;;;;;;;;;1689811;85;21063;-70
2022/03/06 09:33:55;;;;;;;6.85;4.10;;;;;;;;;;1689957;85;21066;-70
2022/03/06 09:36:21;;;;;;;7.12;4.03;;;;;;;;;;1690012;85;21053;-70
2022/03/06 09:38:47;;;;;;;9.50;4.62;;;;;;;;;;1690300;85;21582;-71
2022/03/06 09:41:16;;;;;;;8.73;4.17;;;;;;;;;;1689772;85;21075;-71
2022/03/06 09:43:43;;;;;;;6.50;3.25;;;;;;;;;;1689870;85;21103;-70
2022/03/06 09:46:09;;;;;;;6.62;3.85;;;;;;;;;;1689938;85;21043;-70
2022/03/06 09:48:37;;;;;;;10.50;4.90;;;;;;;;;;1689954;85;21039;-69
2022/03/06 09:51:04;;;;;;;6.47;4.28;;;;;;;;;;1689716;85;21094;-69
2022/03/06 09:53:32;;;;;;;7.22;4.67;;;;;;;;;;1689645;85;21134;-70
2022/03/06 09:55:58;;;;;;;5.53;3.30;;;;;;;;;;1689585;85;21618;-71
2022/03/06 09:58:25;;;;;;;5.10;3.00;;;;;;;;;;1689878;85;21012;-71
2022/03/06 10:00:52;;;;;;;4.50;3.08;;;;;;;;;;1689733;85;21058;-70
2022/03/06 10:03:19;;;;;;;5.08;3.47;;;;;;;;;;1689703;82;21087;-70
2022/03/06 10:05:45;;;;;;;5.20;3.40;;;;;;;;;;1689805;84;21384;-71
2022/03/06 10:08:19;;;;;;;5.58;3.90;;;;;;;;;;1689960;85;21630;-70
2022/03/06 10:10:49;;;;;;;5.47;3.37;;;;;;;;;;1689823;85;21551;-70
2022/03/06 10:13:29;;;;;;;5.65;3.58;;;;;;;;;;1689190;82;21067;-71
2022/03/06 10:16:01;;;;;;;4.37;2.98;;;;;;;;;;1689229;84;21079;-71
2022/03/06 10:18:29;;;;;;;6.15;2.90;;;;;;;;;;1690109;85;21008;-71
2022/03/06 10:20:57;;;;;;;6.22;4.28;;;;;;;;;;1689921;85;21043;-71
2022/03/06 10:23:26;;;;;;;4.30;2.80;;;;;;;;;;1689888;85;21143;-70
2022/03/06 10:25:59;;;;;;;5.17;3.80;;;;;;;;;;1690087;85;21006;-71
2022/03/06 10:28:27;;;;;;;3.95;2.87;;;;;;;;;;1690055;85;21609;-71
2022/03/06 10:30:54;;;;;;;5.15;3.00;;;;;;;;;;1689554;85;21086;-71
2022/03/06 10:33:20;;;;;;;4.72;2.90;;;;;;;;;;1689997;85;21054;-70
2022/03/06 10:35:47;;;;;;;6.65;3.70;;;;;;;;;;1689859;85;21040;-70
2022/03/06 10:38:27;;;;;;;6.22;3.20;;;;;;;;;;1689908;85;21133;-71
2022/03/06 10:40:54;;;;;;;5.40;2.80;;;;;;;;;;1689785;85;21054;-70
2022/03/06 10:43:24;;;;;;;5.67;3.12;;;;;;;;;;1689936;85;21556;-72
2022/03/06 10:45:51;;;;;;;6.85;3.30;;;;;;;;;;1689852;85;21059;-71
2022/03/06 10:48:18;;;;;;;7.30;3.80;;;;;;;;;;1689777;85;21051;-71
2022/03/06 10:50:44;;;;;;;6.03;3.02;;;;;;;;;;1689568;85;21075;-70
2022/03/06 10:53:18;;;;;;;5.08;2.60;;;;;;;;;;1689797;85;21051;-71
2022/03/06 10:55:48;;;;;;;6.35;3.83;;;;;;;;;;1689730;85;21059;-70
2022/03/06 10:58:14;;;;;;;7.37;3.60;;;;;;;;;;1689581;85;21082;-70
2022/03/06 11:00:41;;;;;;;7.60;3.67;;;;;;;;;;1689786;85;21598;-70
2022/03/06 11:05:01;;;;;;;7.47;3.80;;;;;;;;;;1801993;79;22470;-71
2022/03/06 11:07:28;;;;;;;6.72;3.20;;;;;;;;;;1761601;81;21064;-71
2022/03/06 11:09:57;;;;;;;4.87;2.90;;;;;;;;;;1761729;81;21061;-71
2022/03/06 11:12:23;;;;;;;6.60;3.65;;;;;;;;;;1761790;81;21072;-70
2022/03/06 11:14:50;;;;;;;8.88;4.87;;;;;;;;;;1761597;81;21068;-69
2022/03/06 11:17:16;;;;;;;7.85;4.10;;;;;;;;;;1761746;81;21503;-71
2022/03/06 11:19:43;;;;;;;8.75;4.80;;;;;;;;;;1761607;81;21052;-70
2022/03/06 11:22:11;;;;;;;6.90;4.20;;;;;;;;;;1761614;81;21048;-71
2022/03/06 11:24:37;;;;;;;8.78;4.40;;;;;;;;;;1761749;81;21582;-71
2022/03/06 11:27:09;;;;;;;7.45;4.58;;;;;;;;;;1761470;81;21066;-70
2022/03/06 11:29:52;;;;;;;7.28;3.47;;;;;;;;;;1761613;81;21060;-71
2022/03/06 11:32:25;;;;;;;6.70;3.52;;;;;;;;;;1761145;81;21088;-71
2022/03/06 11:34:53;;;;;;;8.93;4.80;;;;;;;;;;1762036;81;21068;-71
2022/03/06 11:37:20;;;;;;;11.63;4.70;;;;;;;;;;1761637;81;21036;-71
2022/03/06 11:39:47;;;;;;;8.60;3.83;;;;;;;;;;1761866;81;20973;-70
2022/03/06 11:42:15;;;;;;;6.03;3.90;;;;;;;;;;1761362;81;21060;-70
2022/03/06 11:44:48;;;;;;;10.10;5.35;;;;;;;;;;1746143;81;21555;-70
2022/03/06 11:47:21;;;;;;;8.53;4.97;;;;;;;;;;1761711;81;21535;-75
2022/03/06 11:49:55;;;;;;;7.12;4.03;;;;;;;;;;1761909;81;21144;-74
2022/03/06 11:52:27;;;;;;;7.78;5.70;;;;;;;;;;1760839;81;21036;-74
2022/03/06 11:54:54;;;;;;;11.22;6.50;;;;;;;;;;1761586;81;21517;-74
2022/03/06 11:57:36;;;;;;;8.15;4.65;;;;;;;;;;1761467;81;21064;-75
2022/03/06 12:00:15;;;;;;;8.40;4.60;;;;;;;;;;1761675;81;21064;-75
2022/03/06 12:02:45;;;;;;;7.75;4.55;;;;;;;;;;1744985;81;21648;-75
2022/03/06 12:05:12;;;;;;;8.50;4.25;;;;;;;;;;1717509;83;21021;-75
2022/03/06 12:07:39;;;;;;;8.48;4.95;;;;;;;;;;1716860;83;21048;-74
2022/03/06 12:10:10;;;;;;;7.33;4.40;;;;;;;;;;1716717;83;21636;-74
2022/03/06 12:12:38;;;;;;;7.62;4.15;;;;;;;;;;1716529;83;21057;-75
2022/03/06 12:15:09;;;;;;;8.08;4.92;;;;;;;;;;1716361;83;21053;-75
2022/03/06 12:17:36;;;;;;;9.68;4.97;;;;;;;;;;1714303;83;21097;-75
2022/03/06 12:20:05;;;;;;;7.70;4.22;;;;;;;;;;1717021;83;21033;-75
2022/03/06 12:22:34;;;;;;;6.12;4.22;;;;;;;;;;1717067;83;21906;-75
2022/03/06 12:25:06;;;;;;;5.35;3.77;;;;;;;;;;1716755;83;21045;-74
2022/03/06 12:27:33;;;;;;;6.33;4.00;;;;;;;;;;1716901;83;21584;-74
2022/03/06 12:30:00;;;;;;;6.92;3.92;;;;;;;;;;1716733;83;21065;-75
2022/03/06 12:32:28;;;;;;;10.32;5.15;;;;;;;;;;1716909;83;21014;-75
2022/03/06 12:35:00;;;;;;;6.47;3.30;;;;;;;;;;1716967;83;21064;-74
2022/03/06 12:37:27;;;;;;;8.00;4.05;;;;;;;;;;1716841;83;21057;-75
2022/03/06 12:39:54;;;;;;;8.70;5.22;;;;;;;;;;1716904;83;21044;-75
2022/03/06 12:42:25;;;;;;;7.35;4.40;;;;;;;;;;1716720;83;21033;-74
2022/03/06 12:44:52;;;;;;;8.95;5.50;;;;;;;;;;1716894;83;21121;-75
2022/03/06 12:47:21;;;;;;;9.15;5.37;;;;;;;;;;1716765;83;21045;-76
2022/03/06 12:49:48;;;;;;;9.60;4.35;;;;;;;;;;1716941;83;21077;-74
2022/03/06 12:52:18;;;;;;;11.43;4.80;;;;;;;;;;1716729;83;21088;-75
2022/03/06 12:54:47;;;;;;;11.85;6.42;;;;;;;;;;1716762;83;21549;-74
2022/03/06 12:57:14;;;;;;;10.13;5.72;;;;;;;;;;1716645;83;21065;-75
2022/03/06 12:59:41;;;;;;;8.85;4.42;;;;;;;;;;1717077;83;21029;-75
2022/03/06 13:02:08;;;;;;;8.50;4.97;;;;;;;;;;1716639;82;21113;-76
2022/03/06 13:04:35;;;;;;;7.00;4.30;;;;;;;;;;1723606;83;21513;-74
2022/03/06 13:07:03;;;;;;;7.83;5.10;;;;;;;;;;1729825;82;21123;-74
2022/03/06 13:09:34;;;;;;;6.83;4.22;;;;;;;;;;1729555;82;21647;-75
2022/03/06 13:11:59;;;;;;;8.38;4.45;;;;;;;;;;1729715;82;21067;-74
2022/03/06 13:14:38;;;;;;;8.18;5.20;;;;;;;;;;1729759;83;21580;-75
2022/03/06 13:17:06;;;;;;;8.33;4.30;;;;;;;;;;1729731;83;21111;-75
2022/03/06 13:19:36;;;;;;;10.65;5.22;;;;;;;;;;1729835;82;21511;-75
2022/03/06 13:22:16;;;;;;;6.92;3.95;;;;;;;;;;1729770;83;21505;-76
2022/03/06 13:24:48;;;;;;;7.33;4.22;;;;;;;;;;1729476;82;21072;-75
2022/03/06 13:27:21;;;;;;;6.60;4.12;;;;;;;;;;1729287;82;21041;-76
2022/03/06 13:29:59;;;;;;;5.65;3.80;;;;;;;;;;1729674;83;21604;-76
2022/03/06 13:32:29;;;;;;;6.22;3.58;;;;;;;;;;1729286;82;21060;-75
2022/03/06 13:34:56;;;;;;;6.35;3.90;;;;;;;;;;1729906;83;21076;-74
2022/03/06 13:37:36;;;;;;;6.10;3.22;;;;;;;;;;1729836;82;21005;-75
2022/03/06 13:40:03;;;;;;;6.50;3.42;;;;;;;;;;1729597;82;21100;-76
2022/03/06 13:42:31;;;;;;;6.87;2.90;;;;;;;;;;1729943;83;21088;-74
2022/03/06 13:44:58;;;;;;;5.97;2.77;;;;;;;;;;1729821;83;21066;-74
2022/03/06 13:47:24;;;;;;;5.35;3.27;;;;;;;;;;1729669;83;21057;-75
2022/03/06 13:50:01;;;;;;;4.22;2.65;;;;;;;;;;1729824;82;21061;-74
2022/03/06 13:52:31;;;;;;;4.12;2.72;;;;;;;;;;1729689;82;21021;-74
2022/03/06 13:55:04;;;;;;;4.47;2.67;;;;;;;;;;1729784;83;21615;-74
2022/03/06 13:57:31;;;;;;;5.25;2.62;;;;;;;;;;1729942;82;21508;-74
2022/03/06 13:59:57;;;;;;;5.75;3.10;;;;;;;;;;1729718;83;20989;-74
2022/03/06 14:02:25;;;;;;;4.95;2.90;;;;;;;;;;1729635;81;21083;-75
2022/03/06 14:04:51;;;;;;;5.50;2.45;;;;;;;;;;1722153;83;21038;-74
2022/03/06 14:07:20;;;;;;;6.83;2.98;;;;;;;;;;1716785;83;21029;-74
2022/03/06 14:09:48;;;;;;;4.10;2.52;;;;;;;;;;1716561;83;21120;-74
2022/03/06 14:12:15;;;;;;;4.55;2.85;;;;;;;;;;1716498;83;21073;-74
2022/03/06 14:14:44;;;;;;;4.87;2.60;;;;;;;;;;1717053;83;21037;-75
2022/03/06 14:17:12;;;;;;;5.22;2.70;;;;;;;;;;1716271;83;21057;-75
2022/03/06 14:19:40;;;;;;;5.53;3.08;;;;;;;;;;1716564;83;21080;-75
2022/03/06 14:22:09;;;;;;;5.87;3.15;;;;;;;;;;1716667;83;21536;-74
2022/03/06 14:24:38;;;;;;;5.12;2.87;;;;;;;;;;1716788;83;21041;-75
2022/03/06 14:27:06;;;;;;;5.35;3.00;;;;;;;;;;1716527;83;21544;-74
2022/03/06 14:29:34;;;;;;;5.50;3.22;;;;;;;;;;1716980;83;21093;-75
2022/03/06 14:32:00;;;;;;;5.08;3.20;;;;;;;;;;1716951;83;21080;-75
2022/03/06 14:34:27;;;;;;;8.38;3.70;;;;;;;;;;1717974;83;21022;-74
2022/03/06 14:36:54;;;;;;;7.08;3.92;;;;;;;;;;1717903;83;21034;-75
2022/03/06 14:39:20;;;;;;;7.97;4.58;;;;;;;;;;1719166;83;21052;-75
2022/03/06 14:41:48;;;;;;;21.95;11.25;;;;;;;;;;1719055;83;21077;-74
2022/03/06 14:44:14;;;;;;;12.35;7.25;;;;;;;;;;1719595;83;21049;-75
2022/03/06 14:46:42;;;;;;;14.87;8.53;;;;;;;;;;1718557;83;21029;-75
2022/03/06 14:49:10;;;;;;;7.97;4.67;;;;;;;;;;1716828;83;21037;-74
2022/03/06 14:51:36;;;;;;;6.75;3.35;;;;;;;;;;1716868;83;21053;-74